sensor_id;sensor_type;location;lat;lon;timestamp;temperature;humidity
1367;DHT22;16877;48.810;9.282;2023-03-05T00:00:31;15.70;44.60
1367;DHT22;16877;48.810;9.282;2023-03-05T00:03:05;15.70;44.60
1367;DHT22;16877;48.810;9.282;2023-03-05T00:05:33;15.70;44.60
1367;DHT22;16877;48.810;9.282;2023-03-05T00:08:02;15.80;44.70
1367;DHT22;16877;48.810;9.282;2023-03-05T00:10:30;15.80;44.70
1367;DHT22;16877;48.810;9.282;2023-03-05T00:12:57;15.80;44.70
1367;DHT22;16877;48.810;9.282;2023-03-05T00:15:33;15.80;44.70
1367;DHT22;16877;48.810;9.282;2023-03-05T00:18:06;15.80;44.60
1367;DHT22;16877;48.810;9.282;2023-03-05T00:20:50;15.80;44.70
1367;DHT22;16877;48.810;9.282;2023-03-05T00:23:21;15.80;44.60
1367;DHT22;16877;48.810;9.282;2023-03-05T00:25:48;15.80;44.70
1367;DHT22;16877;48.810;9.282;2023-03-05T00:28:15;15.80;44.70
1367;DHT22;16877;48.810;9.282;2023-03-05T00:30:46;15.80;44.70
1367;DHT22;16877;48.810;9.282;2023-03-05T00:33:15;15.80;44.70
1367;DHT22;16877;48.810;9.282;2023-03-05T00:35:45;15.80;44.70
1367;DHT22;16877;48.810;9.282;2023-03-05T00:38:12;15.80;44.70
1367;DHT22;16877;48.810;9.282;2023-03-05T00:40:44;15.80;44.70
1367;DHT22;16877;48.810;9.282;2023-03-05T00:43:12;15.80;44.60
1367;DHT22;16877;48.810;9.282;2023-03-05T00:45:41;15.80;44.60
1367;DHT22;16877;48.810;9.282;2023-03-05T00:48:10;15.80;44.60
1367;DHT22;16877;48.810;9.282;2023-03-05T00:50:37;15.90;44.70
1367;DHT22;16877;48.810;9.282;2023-03-05T00:53:04;15.90;44.70
1367;DHT22;16877;48.810;9.282;2023-03-05T00:55:32;15.80;44.60
1367;DHT22;16877;48.810;9.282;2023-03-05T00:58:00;15.90;44.70
1367;DHT22;16877;48.810;9.282;2023-03-05T01:00:28;15.90;45.30
1367;DHT22;16877;48.810;9.282;2023-03-05T01:02:56;15.90;44.70
1367;DHT22;16877;48.810;9.282;2023-03-05T01:05:26;15.90;44.70
1367;DHT22;16877;48.810;9.282;2023-03-05T01:07:54;15.80;44.60
1367;DHT22;16877;48.810;9.282;2023-03-05T01:10:22;15.90;44.80
1367;DHT22;16877;48.810;9.282;2023-03-05T01:12:51;15.90;44.80
1367;DHT22;16877;48.810;9.282;2023-03-05T01:15:20;15.90;44.90
1367;DHT22;16877;48.810;9.282;2023-03-05T01:18:02;15.90;44.90
1367;DHT22;16877;48.810;9.282;2023-03-05T01:20:32;15.90;44.80
1367;DHT22;16877;48.810;9.282;2023-03-05T01:22:59;15.90;44.70
1367;DHT22;16877;48.810;9.282;2023-03-05T01:25:32;15.90;44.80
1367;DHT22;16877;48.810;9.282;2023-03-05T01:28:02;15.90;44.70
1367;DHT22;16877;48.810;9.282;2023-03-05T01:30:32;15.90;44.70
1367;DHT22;16877;48.810;9.282;2023-03-05T01:33:14;15.90;44.60
1367;DHT22;16877;48.810;9.282;2023-03-05T01:35:45;15.90;44.80
1367;DHT22;16877;48.810;9.282;2023-03-05T01:38:13;15.90;44.80
1367;DHT22;16877;48.810;9.282;2023-03-05T01:40:47;15.90;44.80
1367;DHT22;16877;48.810;9.282;2023-03-05T01:43:25;15.90;44.80
1367;DHT22;16877;48.810;9.282;2023-03-05T01:46:21;15.90;44.70
1367;DHT22;16877;48.810;9.282;2023-03-05T01:48:52;15.90;44.80
1367;DHT22;16877;48.810;9.282;2023-03-05T01:51:23;15.90;44.80
1367;DHT22;16877;48.810;9.282;2023-03-05T01:53:52;15.90;44.80
1367;DHT22;16877;48.810;9.282;2023-03-05T01:56:20;15.90;44.80
1367;DHT22;16877;48.810;9.282;2023-03-05T01:58:48;15.90;44.90
1367;DHT22;16877;48.810;9.282;2023-03-05T02:01:16;15.90;44.90
1367;DHT22;16877;48.810;9.282;2023-03-05T02:03:44;15.90;44.80
1367;DHT22;16877;48.810;9.282;2023-03-05T02:06:12;15.90;44.90
1367;DHT22;16877;48.810;9.282;2023-03-05T02:08:41;15.90;44.90
1367;DHT22;16877;48.810;9.282;2023-03-05T02:11:09;15.90;44.90
1367;DHT22;16877;48.810;9.282;2023-03-05T02:13:37;15.90;44.90
1367;DHT22;16877;48.810;9.282;2023-03-05T02:16:06;15.90;45.00
1367;DHT22;16877;48.810;9.282;2023-03-05T02:18:34;15.90;44.90
1367;DHT22;16877;48.810;9.282;2023-03-05T02:21:04;15.80;44.80
1367;DHT22;16877;48.810;9.282;2023-03-05T02:23:34;15.80;44.80
1367;DHT22;16877;48.810;9.282;2023-03-05T02:26:04;15.80;44.90
1367;DHT22;16877;48.810;9.282;2023-03-05T02:28:34;15.80;44.90
1367;DHT22;16877;48.810;9.282;2023-03-05T02:31:08;15.80;44.90
1367;DHT22;16877;48.810;9.282;2023-03-05T02:33:35;15.80;44.90
1367;DHT22;16877;48.810;9.282;2023-03-05T02:36:06;15.90;45.10
1367;DHT22;16877;48.810;9.282;2023-03-05T02:38:35;15.80;45.00
1367;DHT22;16877;48.810;9.282;2023-03-05T02:41:06;15.80;45.00
1367;DHT22;16877;48.810;9.282;2023-03-05T02:43:34;15.80;45.00
1367;DHT22;16877;48.810;9.282;2023-03-05T02:46:01;15.80;45.00
1367;DHT22;16877;48.810;9.282;2023-03-05T02:48:29;15.80;45.00
1367;DHT22;16877;48.810;9.282;2023-03-05T02:50:56;15.80;45.10
1367;DHT22;16877;48.810;9.282;2023-03-05T02:53:26;15.80;45.10
1367;DHT22;16877;48.810;9.282;2023-03-05T02:55:53;15.80;45.10
1367;DHT22;16877;48.810;9.282;2023-03-05T02:58:22;15.80;45.20
1367;DHT22;16877;48.810;9.282;2023-03-05T03:00:49;15.80;45.10
1367;DHT22;16877;48.810;9.282;2023-03-05T03:03:17;15.80;45.20
1367;DHT22;16877;48.810;9.282;2023-03-05T03:05:44;15.80;45.20
1367;DHT22;16877;48.810;9.282;2023-03-05T03:08:12;15.80;45.20
1367;DHT22;16877;48.810;9.282;2023-03-05T03:10:42;15.80;45.20
1367;DHT22;16877;48.810;9.282;2023-03-05T03:13:09;15.80;45.10
1367;DHT22;16877;48.810;9.282;2023-03-05T03:15:38;15.80;45.20
1367;DHT22;16877;48.810;9.282;2023-03-05T03:18:05;15.80;45.20
1367;DHT22;16877;48.810;9.282;2023-03-05T03:20:36;15.80;45.20
1367;DHT22;16877;48.810;9.282;2023-03-05T03:23:04;15.80;45.20
1367;DHT22;16877;48.810;9.282;2023-03-05T03:25:33;15.80;45.20
1367;DHT22;16877;48.810;9.282;2023-03-05T03:28:04;15.80;45.20
1367;DHT22;16877;48.810;9.282;2023-03-05T03:30:32;15.80;45.20
1367;DHT22;16877;48.810;9.282;2023-03-05T03:32:59;15.80;45.20
1367;DHT22;16877;48.810;9.282;2023-03-05T03:35:27;15.80;45.30
1367;DHT22;16877;48.810;9.282;2023-03-05T03:37:55;15.80;45.30
1367;DHT22;16877;48.810;9.282;2023-03-05T03:40:22;15.80;45.40
1367;DHT22;16877;48.810;9.282;2023-03-05T03:42:50;15.80;45.40
1367;DHT22;16877;48.810;9.282;2023-03-05T03:45:20;15.80;45.40
1367;DHT22;16877;48.810;9.282;2023-03-05T03:47:47;15.80;45.30
1367;DHT22;16877;48.810;9.282;2023-03-05T03:50:15;15.80;45.40
1367;DHT22;16877;48.810;9.282;2023-03-05T03:52:42;15.80;45.30
1367;DHT22;16877;48.810;9.282;2023-03-05T03:55:10;15.80;45.30
1367;DHT22;16877;48.810;9.282;2023-03-05T03:57:37;15.80;45.40
1367;DHT22;16877;48.810;9.282;2023-03-05T04:00:06;15.80;45.40
1367;DHT22;16877;48.810;9.282;2023-03-05T04:02:36;15.80;45.40
1367;DHT22;16877;48.810;9.282;2023-03-05T04:05:04;15.80;46.00
1367;DHT22;16877;48.810;9.282;2023-03-05T04:07:31;15.70;45.30
1367;DHT22;16877;48.810;9.282;2023-03-05T04:09:59;15.70;45.50
1367;DHT22;16877;48.810;9.282;2023-03-05T04:12:26;15.70;45.40
1367;DHT22;16877;48.810;9.282;2023-03-05T04:14:54;15.70;45.30
1367;DHT22;16877;48.810;9.282;2023-03-05T04:17:21;15.70;45.50
1367;DHT22;16877;48.810;9.282;2023-03-05T04:19:51;15.70;45.50
1367;DHT22;16877;48.810;9.282;2023-03-05T04:22:18;15.70;45.40
1367;DHT22;16877;48.810;9.282;2023-03-05T04:24:56;15.70;45.40
1367;DHT22;16877;48.810;9.282;2023-03-05T04:27:24;15.70;45.40
1367;DHT22;16877;48.810;9.282;2023-03-05T04:29:51;15.70;45.50
1367;DHT22;16877;48.810;9.282;2023-03-05T04:32:18;15.70;45.50
1367;DHT22;16877;48.810;9.282;2023-03-05T04:34:48;15.70;45.60
1367;DHT22;16877;48.810;9.282;2023-03-05T04:37:17;15.70;45.50
1367;DHT22;16877;48.810;9.282;2023-03-05T04:39:44;15.70;45.50
1367;DHT22;16877;48.810;9.282;2023-03-05T04:42:22;15.70;45.60
1367;DHT22;16877;48.810;9.282;2023-03-05T04:44:50;15.70;45.70
1367;DHT22;16877;48.810;9.282;2023-03-05T04:47:18;15.70;45.80
1367;DHT22;16877;48.810;9.282;2023-03-05T04:49:45;15.70;45.70
1367;DHT22;16877;48.810;9.282;2023-03-05T04:52:13;15.70;45.90
1367;DHT22;16877;48.810;9.282;2023-03-05T04:54:43;15.60;45.70
1367;DHT22;16877;48.810;9.282;2023-03-05T04:57:14;15.60;45.80
1367;DHT22;16877;48.810;9.282;2023-03-05T04:59:42;15.60;45.80
1367;DHT22;16877;48.810;9.282;2023-03-05T05:02:10;15.60;45.80
1367;DHT22;16877;48.810;9.282;2023-03-05T05:04:38;15.60;45.90
1367;DHT22;16877;48.810;9.282;2023-03-05T05:07:09;15.60;45.80
1367;DHT22;16877;48.810;9.282;2023-03-05T05:09:37;15.60;46.10
1367;DHT22;16877;48.810;9.282;2023-03-05T05:12:07;15.50;45.90
1367;DHT22;16877;48.810;9.282;2023-03-05T05:14:35;15.50;45.80
1367;DHT22;16877;48.810;9.282;2023-03-05T05:17:03;15.50;46.00
1367;DHT22;16877;48.810;9.282;2023-03-05T05:19:30;15.50;45.90
1367;DHT22;16877;48.810;9.282;2023-03-05T05:21:58;15.50;45.90
1367;DHT22;16877;48.810;9.282;2023-03-05T05:24:26;15.50;46.00
1367;DHT22;16877;48.810;9.282;2023-03-05T05:26:53;15.50;46.00
1367;DHT22;16877;48.810;9.282;2023-03-05T05:29:22;15.50;46.00
1367;DHT22;16877;48.810;9.282;2023-03-05T05:31:50;15.50;46.00
1367;DHT22;16877;48.810;9.282;2023-03-05T05:34:18;15.50;46.10
1367;DHT22;16877;48.810;9.282;2023-03-05T05:36:49;15.50;46.00
1367;DHT22;16877;48.810;9.282;2023-03-05T05:39:17;15.50;46.00
1367;DHT22;16877;48.810;9.282;2023-03-05T05:41:49;15.50;46.00
1367;DHT22;16877;48.810;9.282;2023-03-05T05:44:17;15.50;46.00
1367;DHT22;16877;48.810;9.282;2023-03-05T05:46:47;15.50;46.00
1367;DHT22;16877;48.810;9.282;2023-03-05T05:49:15;15.50;46.10
1367;DHT22;16877;48.810;9.282;2023-03-05T05:51:43;15.50;46.10
1367;DHT22;16877;48.810;9.282;2023-03-05T05:54:12;15.50;46.00
1367;DHT22;16877;48.810;9.282;2023-03-05T05:56:39;15.50;46.00
1367;DHT22;16877;48.810;9.282;2023-03-05T05:59:08;15.50;46.10
1367;DHT22;16877;48.810;9.282;2023-03-05T06:01:36;15.40;46.20
1367;DHT22;16877;48.810;9.282;2023-03-05T06:04:05;15.40;46.10
1367;DHT22;16877;48.810;9.282;2023-03-05T06:06:32;15.40;46.10
1367;DHT22;16877;48.810;9.282;2023-03-05T06:09:00;15.40;46.10
1367;DHT22;16877;48.810;9.282;2023-03-05T06:11:27;15.40;46.30
1367;DHT22;16877;48.810;9.282;2023-03-05T06:13:55;15.40;46.10
1367;DHT22;16877;48.810;9.282;2023-03-05T06:16:24;15.40;46.00
1367;DHT22;16877;48.810;9.282;2023-03-05T06:18:51;15.40;46.00
1367;DHT22;16877;48.810;9.282;2023-03-05T06:21:21;15.40;46.00
1367;DHT22;16877;48.810;9.282;2023-03-05T06:23:49;15.40;45.80
1367;DHT22;16877;48.810;9.282;2023-03-05T06:26:19;15.40;46.00
1367;DHT22;16877;48.810;9.282;2023-03-05T06:28:53;15.40;46.10
1367;DHT22;16877;48.810;9.282;2023-03-05T06:31:28;15.40;46.10
1367;DHT22;16877;48.810;9.282;2023-03-05T06:34:03;15.40;45.90
1367;DHT22;16877;48.810;9.282;2023-03-05T06:36:37;15.40;46.00
1367;DHT22;16877;48.810;9.282;2023-03-05T06:39:17;15.40;46.10
1367;DHT22;16877;48.810;9.282;2023-03-05T06:41:49;15.40;46.00
1367;DHT22;16877;48.810;9.282;2023-03-05T06:44:27;15.40;46.00
1367;DHT22;16877;48.810;9.282;2023-03-05T06:46:56;15.50;46.00
1367;DHT22;16877;48.810;9.282;2023-03-05T06:49:26;15.50;46.00
1367;DHT22;16877;48.810;9.282;2023-03-05T06:52:06;15.50;46.00
1367;DHT22;16877;48.810;9.282;2023-03-05T06:54:37;15.50;46.00
1367;DHT22;16877;48.810;9.282;2023-03-05T06:57:07;15.50;46.10
1367;DHT22;16877;48.810;9.282;2023-03-05T06:59:35;15.60;46.10
1367;DHT22;16877;48.810;9.282;2023-03-05T07:02:25;15.50;46.00
1367;DHT22;16877;48.810;9.282;2023-03-05T07:04:56;15.50;46.00
1367;DHT22;16877;48.810;9.282;2023-03-05T07:07:26;15.40;45.70
1367;DHT22;16877;48.810;9.282;2023-03-05T07:09:54;15.40;45.80
1367;DHT22;16877;48.810;9.282;2023-03-05T07:12:22;15.40;45.80
1367;DHT22;16877;48.810;9.282;2023-03-05T07:15:04;15.40;45.70
1367;DHT22;16877;48.810;9.282;2023-03-05T07:17:32;15.40;45.70
1367;DHT22;16877;48.810;9.282;2023-03-05T07:20:00;15.40;45.70
1367;DHT22;16877;48.810;9.282;2023-03-05T07:22:30;15.40;45.50
1367;DHT22;16877;48.810;9.282;2023-03-05T07:24:57;15.40;45.60
1367;DHT22;16877;48.810;9.282;2023-03-05T07:27:24;15.40;45.60
1367;DHT22;16877;48.810;9.282;2023-03-05T07:29:52;15.40;45.60
1367;DHT22;16877;48.810;9.282;2023-03-05T07:32:19;15.40;45.70
1367;DHT22;16877;48.810;9.282;2023-03-05T07:34:47;15.40;45.70
1367;DHT22;16877;48.810;9.282;2023-03-05T07:37:14;15.50;45.80
1367;DHT22;16877;48.810;9.282;2023-03-05T07:39:44;15.50;45.80
1367;DHT22;16877;48.810;9.282;2023-03-05T07:42:11;15.50;45.80
1367;DHT22;16877;48.810;9.282;2023-03-05T07:44:38;15.50;45.90
1367;DHT22;16877;48.810;9.282;2023-03-05T07:47:05;15.50;45.80
1367;DHT22;16877;48.810;9.282;2023-03-05T07:49:33;15.60;46.00
1367;DHT22;16877;48.810;9.282;2023-03-05T07:52:01;15.60;45.90
1367;DHT22;16877;48.810;9.282;2023-03-05T07:54:28;15.60;45.90
1367;DHT22;16877;48.810;9.282;2023-03-05T07:56:57;15.60;45.80
1367;DHT22;16877;48.810;9.282;2023-03-05T07:59:27;15.70;48.70
1367;DHT22;16877;48.810;9.282;2023-03-05T08:01:55;15.80;49.00
1367;DHT22;16877;48.810;9.282;2023-03-05T08:04:23;15.90;47.70
1367;DHT22;16877;48.810;9.282;2023-03-05T08:06:50;15.90;47.30
1367;DHT22;16877;48.810;9.282;2023-03-05T08:09:18;15.90;47.10
1367;DHT22;16877;48.810;9.282;2023-03-05T08:12:02;16.00;47.20
1367;DHT22;16877;48.810;9.282;2023-03-05T08:14:30;16.00;47.50
1367;DHT22;16877;48.810;9.282;2023-03-05T08:17:01;16.00;48.30
1367;DHT22;16877;48.810;9.282;2023-03-05T08:19:29;16.10;48.80
1367;DHT22;16877;48.810;9.282;2023-03-05T08:21:58;16.30;50.10
1367;DHT22;16877;48.810;9.282;2023-03-05T08:24:26;16.40;48.20
1367;DHT22;16877;48.810;9.282;2023-03-05T08:26:55;16.40;47.10
1367;DHT22;16877;48.810;9.282;2023-03-05T08:29:25;16.40;46.70
1367;DHT22;16877;48.810;9.282;2023-03-05T08:31:52;16.30;46.30
1367;DHT22;16877;48.810;9.282;2023-03-05T08:34:20;16.30;46.40
1367;DHT22;16877;48.810;9.282;2023-03-05T08:36:48;16.30;46.40
1367;DHT22;16877;48.810;9.282;2023-03-05T08:39:17;16.20;45.90
1367;DHT22;16877;48.810;9.282;2023-03-05T08:41:44;16.20;45.90
1367;DHT22;16877;48.810;9.282;2023-03-05T08:44:28;16.20;45.90
1367;DHT22;16877;48.810;9.282;2023-03-05T08:47:00;16.20;45.70
1367;DHT22;16877;48.810;9.282;2023-03-05T08:49:27;16.20;45.50
1367;DHT22;16877;48.810;9.282;2023-03-05T08:52:09;16.20;45.60
1367;DHT22;16877;48.810;9.282;2023-03-05T08:54:37;16.20;45.60
1367;DHT22;16877;48.810;9.282;2023-03-05T08:57:06;16.30;45.60
1367;DHT22;16877;48.810;9.282;2023-03-05T08:59:52;16.30;45.60
1367;DHT22;16877;48.810;9.282;2023-03-05T09:02:19;16.30;45.50
1367;DHT22;16877;48.810;9.282;2023-03-05T09:04:47;16.30;45.50
1367;DHT22;16877;48.810;9.282;2023-03-05T09:07:15;16.30;45.50
1367;DHT22;16877;48.810;9.282;2023-03-05T09:09:57;16.40;45.60
1367;DHT22;16877;48.810;9.282;2023-03-05T09:12:25;16.40;45.60
1367;DHT22;16877;48.810;9.282;2023-03-05T09:14:55;16.40;45.40
1367;DHT22;16877;48.810;9.282;2023-03-05T09:17:23;16.40;45.30
1367;DHT22;16877;48.810;9.282;2023-03-05T09:19:50;16.40;45.20
1367;DHT22;16877;48.810;9.282;2023-03-05T09:22:18;16.40;45.20
1367;DHT22;16877;48.810;9.282;2023-03-05T09:24:48;16.40;45.00
1367;DHT22;16877;48.810;9.282;2023-03-05T09:27:15;16.50;44.80
1367;DHT22;16877;48.810;9.282;2023-03-05T09:29:43;16.50;44.80
1367;DHT22;16877;48.810;9.282;2023-03-05T09:32:12;16.50;44.80
1367;DHT22;16877;48.810;9.282;2023-03-05T09:34:40;16.60;45.00
1367;DHT22;16877;48.810;9.282;2023-03-05T09:37:07;16.60;44.90
1367;DHT22;16877;48.810;9.282;2023-03-05T09:39:49;16.60;45.30
1367;DHT22;16877;48.810;9.282;2023-03-05T09:42:37;16.70;44.60
1367;DHT22;16877;48.810;9.282;2023-03-05T09:45:26;16.70;44.60
1367;DHT22;16877;48.810;9.282;2023-03-05T09:48:16;16.80;44.70
1367;DHT22;16877;48.810;9.282;2023-03-05T09:51:17;16.80;44.80
1367;DHT22;16877;48.810;9.282;2023-03-05T09:53:48;16.80;44.60
1367;DHT22;16877;48.810;9.282;2023-03-05T09:56:21;16.80;44.70
1367;DHT22;16877;48.810;9.282;2023-03-05T09:58:51;16.90;44.70
1367;DHT22;16877;48.810;9.282;2023-03-05T10:01:21;16.90;44.70
1367;DHT22;16877;48.810;9.282;2023-03-05T10:04:14;16.90;44.40
1367;DHT22;16877;48.810;9.282;2023-03-05T10:06:55;16.90;44.20
1367;DHT22;16877;48.810;9.282;2023-03-05T10:09:36;16.90;44.30
1367;DHT22;16877;48.810;9.282;2023-03-05T10:12:13;16.90;44.10
1367;DHT22;16877;48.810;9.282;2023-03-05T10:14:45;16.90;44.10
1367;DHT22;16877;48.810;9.282;2023-03-05T10:20:27;17.00;44.10
1367;DHT22;16877;48.810;9.282;2023-03-05T10:23:07;17.00;44.10
1367;DHT22;16877;48.810;9.282;2023-03-05T10:26:07;17.00;44.20
1367;DHT22;16877;48.810;9.282;2023-03-05T10:28:42;17.00;44.20
1367;DHT22;16877;48.810;9.282;2023-03-05T10:31:28;17.00;43.90
1367;DHT22;16877;48.810;9.282;2023-03-05T10:34:18;17.00;43.80
1367;DHT22;16877;48.810;9.282;2023-03-05T10:37:04;17.00;44.00
1367;DHT22;16877;48.810;9.282;2023-03-05T10:39:45;17.00;44.10
1367;DHT22;16877;48.810;9.282;2023-03-05T10:42:24;17.00;44.00
1367;DHT22;16877;48.810;9.282;2023-03-05T10:44:56;17.00;44.20
1367;DHT22;16877;48.810;9.282;2023-03-05T10:47:27;17.00;44.10
1367;DHT22;16877;48.810;9.282;2023-03-05T10:50:00;17.00;44.00
1367;DHT22;16877;48.810;9.282;2023-03-05T10:52:35;17.00;44.10
1367;DHT22;16877;48.810;9.282;2023-03-05T10:55:13;17.00;44.10
1367;DHT22;16877;48.810;9.282;2023-03-05T10:57:41;17.00;44.10
1367;DHT22;16877;48.810;9.282;2023-03-05T11:00:17;17.10;44.20
1367;DHT22;16877;48.810;9.282;2023-03-05T11:02:57;17.00;44.00
1367;DHT22;16877;48.810;9.282;2023-03-05T11:05:38;17.00;44.00
1367;DHT22;16877;48.810;9.282;2023-03-05T11:08:28;17.00;43.90
1367;DHT22;16877;48.810;9.282;2023-03-05T11:11:09;17.10;44.10
1367;DHT22;16877;48.810;9.282;2023-03-05T11:13:50;17.10;44.00
1367;DHT22;16877;48.810;9.282;2023-03-05T11:16:19;17.10;43.90
1367;DHT22;16877;48.810;9.282;2023-03-05T11:18:47;17.10;43.80
1367;DHT22;16877;48.810;9.282;2023-03-05T11:21:29;17.10;43.70
1367;DHT22;16877;48.810;9.282;2023-03-05T11:24:11;17.10;43.70
1367;DHT22;16877;48.810;9.282;2023-03-05T11:26:48;17.00;43.70
1367;DHT22;16877;48.810;9.282;2023-03-05T11:29:21;17.00;43.80
1367;DHT22;16877;48.810;9.282;2023-03-05T11:31:51;17.00;43.80
1367;DHT22;16877;48.810;9.282;2023-03-05T11:34:30;17.00;43.80
1367;DHT22;16877;48.810;9.282;2023-03-05T11:37:02;17.00;43.80
1367;DHT22;16877;48.810;9.282;2023-03-05T11:39:33;16.90;43.70
1367;DHT22;16877;48.810;9.282;2023-03-05T11:42:05;16.90;43.70
1367;DHT22;16877;48.810;9.282;2023-03-05T11:44:39;16.90;43.70
1367;DHT22;16877;48.810;9.282;2023-03-05T11:47:17;16.90;43.70
1367;DHT22;16877;48.810;9.282;2023-03-05T11:49:49;16.90;43.70
1367;DHT22;16877;48.810;9.282;2023-03-05T11:52:20;16.90;43.80
1367;DHT22;16877;48.810;9.282;2023-03-05T11:54:58;17.00;44.00
1367;DHT22;16877;48.810;9.282;2023-03-05T11:57:33;16.90;43.80
1367;DHT22;16877;48.810;9.282;2023-03-05T12:00:05;16.90;43.90
1367;DHT22;16877;48.810;9.282;2023-03-05T12:02:36;16.90;43.90
1367;DHT22;16877;48.810;9.282;2023-03-05T12:05:05;16.90;43.80
1367;DHT22;16877;48.810;9.282;2023-03-05T12:07:35;16.90;43.70
1367;DHT22;16877;48.810;9.282;2023-03-05T12:10:13;16.80;43.50
1367;DHT22;16877;48.810;9.282;2023-03-05T12:12:47;16.90;43.60
1367;DHT22;16877;48.810;9.282;2023-03-05T12:15:37;16.90;43.50
1367;DHT22;16877;48.810;9.282;2023-03-05T12:18:15;16.90;43.40
1367;DHT22;16877;48.810;9.282;2023-03-05T12:20:48;16.80;43.10
1367;DHT22;16877;48.810;9.282;2023-03-05T12:23:21;16.80;43.00
1367;DHT22;16877;48.810;9.282;2023-03-05T12:25:54;16.80;43.00
1367;DHT22;16877;48.810;9.282;2023-03-05T12:28:55;16.80;42.90
1367;DHT22;16877;48.810;9.282;2023-03-05T12:31:36;16.80;42.70
1367;DHT22;16877;48.810;9.282;2023-03-05T12:40:23;16.80;43.30
1367;DHT22;16877;48.810;9.282;2023-03-05T12:42:56;16.80;43.40
1367;DHT22;16877;48.810;9.282;2023-03-05T12:45:33;16.80;43.60
1367;DHT22;16877;48.810;9.282;2023-03-05T12:51:10;16.80;44.10
1367;DHT22;16877;48.810;9.282;2023-03-05T12:53:37;16.80;44.00
1367;DHT22;16877;48.810;9.282;2023-03-05T12:56:13;16.80;43.80
1367;DHT22;16877;48.810;9.282;2023-03-05T12:58:47;16.80;44.00
1367;DHT22;16877;48.810;9.282;2023-03-05T13:01:35;16.80;44.20
1367;DHT22;16877;48.810;9.282;2023-03-05T13:04:11;16.80;44.20
1367;DHT22;16877;48.810;9.282;2023-03-05T13:06:40;16.80;44.10
1367;DHT22;16877;48.810;9.282;2023-03-05T13:09:16;16.70;43.90
1367;DHT22;16877;48.810;9.282;2023-03-05T13:11:47;16.70;44.00
1367;DHT22;16877;48.810;9.282;2023-03-05T13:14:38;16.80;43.90
1367;DHT22;16877;48.810;9.282;2023-03-05T13:17:34;16.80;44.00
1367;DHT22;16877;48.810;9.282;2023-03-05T13:20:27;16.80;43.90
1367;DHT22;16877;48.810;9.282;2023-03-05T13:23:03;16.80;43.80
1367;DHT22;16877;48.810;9.282;2023-03-05T13:25:31;16.80;43.80
1367;DHT22;16877;48.810;9.282;2023-03-05T13:28:02;16.80;43.80
1367;DHT22;16877;48.810;9.282;2023-03-05T13:30:31;16.70;43.80
1367;DHT22;16877;48.810;9.282;2023-03-05T13:33:16;16.80;44.00
1367;DHT22;16877;48.810;9.282;2023-03-05T13:35:44;16.80;43.70
1367;DHT22;16877;48.810;9.282;2023-03-05T13:38:31;16.80;43.80
1367;DHT22;16877;48.810;9.282;2023-03-05T13:41:04;16.70;43.50
1367;DHT22;16877;48.810;9.282;2023-03-05T13:43:32;16.70;43.40
1367;DHT22;16877;48.810;9.282;2023-03-05T13:46:01;16.70;43.30
1367;DHT22;16877;48.810;9.282;2023-03-05T13:48:43;16.60;43.20
1367;DHT22;16877;48.810;9.282;2023-03-05T13:51:11;16.70;43.40
1367;DHT22;16877;48.810;9.282;2023-03-05T13:53:38;16.60;43.30
1367;DHT22;16877;48.810;9.282;2023-03-05T13:56:07;16.60;43.30
1367;DHT22;16877;48.810;9.282;2023-03-05T13:58:44;16.70;43.50
1367;DHT22;16877;48.810;9.282;2023-03-05T14:01:26;16.70;43.60
1367;DHT22;16877;48.810;9.282;2023-03-05T14:03:56;16.60;43.60
1367;DHT22;16877;48.810;9.282;2023-03-05T14:06:26;16.60;43.60
1367;DHT22;16877;48.810;9.282;2023-03-05T14:09:01;16.60;43.50
1367;DHT22;16877;48.810;9.282;2023-03-05T14:11:29;16.60;43.50
1367;DHT22;16877;48.810;9.282;2023-03-05T14:14:03;16.80;49.90
1367;DHT22;16877;48.810;9.282;2023-03-05T14:16:33;16.90;47.60
1367;DHT22;16877;48.810;9.282;2023-03-05T14:19:01;16.90;45.80
1367;DHT22;16877;48.810;9.282;2023-03-05T14:21:44;16.90;44.80
1367;DHT22;16877;48.810;9.282;2023-03-05T14:24:17;16.80;44.20
1367;DHT22;16877;48.810;9.282;2023-03-05T14:26:49;16.80;44.10
1367;DHT22;16877;48.810;9.282;2023-03-05T14:29:28;16.80;43.90
1367;DHT22;16877;48.810;9.282;2023-03-05T14:31:58;16.70;44.00
1367;DHT22;16877;48.810;9.282;2023-03-05T14:34:41;16.70;43.80
1367;DHT22;16877;48.810;9.282;2023-03-05T14:37:18;16.60;43.50
1367;DHT22;16877;48.810;9.282;2023-03-05T14:39:50;16.60;43.40
1367;DHT22;16877;48.810;9.282;2023-03-05T14:42:26;16.50;43.40
1367;DHT22;16877;48.810;9.282;2023-03-05T14:44:56;16.50;43.60
1367;DHT22;16877;48.810;9.282;2023-03-05T14:47:26;16.50;43.60
1367;DHT22;16877;48.810;9.282;2023-03-05T14:49:54;16.50;43.70
1367;DHT22;16877;48.810;9.282;2023-03-05T14:52:23;16.50;43.80
1367;DHT22;16877;48.810;9.282;2023-03-05T14:55:06;16.40;43.70
1367;DHT22;16877;48.810;9.282;2023-03-05T14:57:33;16.40;43.60
1367;DHT22;16877;48.810;9.282;2023-03-05T15:00:02;16.40;43.60
1367;DHT22;16877;48.810;9.282;2023-03-05T15:02:31;16.30;43.50
1367;DHT22;16877;48.810;9.282;2023-03-05T15:04:59;16.30;43.60
1367;DHT22;16877;48.810;9.282;2023-03-05T15:07:29;16.30;43.70
1367;DHT22;16877;48.810;9.282;2023-03-05T15:09:57;16.30;43.80
1367;DHT22;16877;48.810;9.282;2023-03-05T15:12:26;16.30;43.80
1367;DHT22;16877;48.810;9.282;2023-03-05T15:14:55;16.30;43.90
1367;DHT22;16877;48.810;9.282;2023-03-05T15:17:32;16.20;43.90
1367;DHT22;16877;48.810;9.282;2023-03-05T15:20:05;16.20;44.00
1367;DHT22;16877;48.810;9.282;2023-03-05T15:22:34;16.20;44.00
1367;DHT22;16877;48.810;9.282;2023-03-05T15:25:01;16.20;44.20
1367;DHT22;16877;48.810;9.282;2023-03-05T15:27:29;16.20;44.40
1367;DHT22;16877;48.810;9.282;2023-03-05T15:30:19;16.10;44.10
1367;DHT22;16877;48.810;9.282;2023-03-05T15:32:49;16.10;44.20
1367;DHT22;16877;48.810;9.282;2023-03-05T15:35:17;16.10;44.20
1367;DHT22;16877;48.810;9.282;2023-03-05T15:37:44;16.10;44.10
1367;DHT22;16877;48.810;9.282;2023-03-05T15:40:12;16.10;44.10
1367;DHT22;16877;48.810;9.282;2023-03-05T15:42:40;16.00;44.20
1367;DHT22;16877;48.810;9.282;2023-03-05T15:45:08;16.00;44.20
1367;DHT22;16877;48.810;9.282;2023-03-05T15:47:36;16.00;44.20
1367;DHT22;16877;48.810;9.282;2023-03-05T15:50:06;16.00;44.30
1367;DHT22;16877;48.810;9.282;2023-03-05T15:52:34;16.00;44.30
1367;DHT22;16877;48.810;9.282;2023-03-05T15:55:02;16.00;44.30
1367;DHT22;16877;48.810;9.282;2023-03-05T15:57:30;15.90;44.20
1367;DHT22;16877;48.810;9.282;2023-03-05T16:00:00;15.90;44.30
1367;DHT22;16877;48.810;9.282;2023-03-05T16:02:27;15.90;44.30
1367;DHT22;16877;48.810;9.282;2023-03-05T16:04:55;16.00;44.50
1367;DHT22;16877;48.810;9.282;2023-03-05T16:07:26;15.90;44.60
1367;DHT22;16877;48.810;9.282;2023-03-05T16:09:55;15.90;44.60
1367;DHT22;16877;48.810;9.282;2023-03-05T16:12:26;15.90;44.70
1367;DHT22;16877;48.810;9.282;2023-03-05T16:14:55;15.90;44.60
1367;DHT22;16877;48.810;9.282;2023-03-05T16:17:38;15.90;44.60
1367;DHT22;16877;48.810;9.282;2023-03-05T16:20:08;15.90;44.50
1367;DHT22;16877;48.810;9.282;2023-03-05T16:22:38;15.90;44.60
1367;DHT22;16877;48.810;9.282;2023-03-05T16:25:07;15.90;44.50